DLH3PW EDDG-EDDB
Flight info
| Callsign | DLH3PW |
|---|---|
| Flight time | N/A |
| Altitude | 33000 |
| Route | OSN9E OSN L980 HLZ DCT BATEL T207 OGBER |
| Aircraft | A20N/M-SDE2E3FGHIRWXY/LB1 |
Departure
| Time | 2026-04-26 12:38 |
|---|---|
| Airport | Münster Osnabrück Airport (EDDG) |
Arrival
| Time | N/A |
|---|---|
| Airport | Berlin Brandenburg Airport (EDDB) |
| Time | Latitude | Longitude | Altitude | Speed | Heading |
|---|---|---|---|---|---|
| 2026-04-26 12:04 | 52.13187 | 7.69469 | 167 ft | 0 kts | 197° |
| 2026-04-26 12:29 | 52.13200 | 7.69475 | 167 ft | 1 kts | 197° |
| 2026-04-26 12:30 | 52.13207 | 7.69479 | 167 ft | 1 kts | 197° |
| 2026-04-26 12:30 | 52.13215 | 7.69483 | 167 ft | 1 kts | 197° |
| 2026-04-26 12:30 | 52.13222 | 7.69486 | 167 ft | 1 kts | 197° |
| 2026-04-26 12:31 | 52.13237 | 7.69493 | 167 ft | 1 kts | 186° |
| 2026-04-26 12:31 | 52.13269 | 7.69508 | 166 ft | 5 kts | 234° |
| 2026-04-26 12:31 | 52.13271 | 7.69515 | 166 ft | 0 kts | 245° |
| 2026-04-26 12:32 | 52.13270 | 7.69511 | 166 ft | 2 kts | 245° |
| 2026-04-26 12:33 | 52.13251 | 7.69444 | 166 ft | 11 kts | 244° |
| 2026-04-26 12:33 | 52.13217 | 7.69291 | 166 ft | 17 kts | 258° |
| 2026-04-26 12:33 | 52.13183 | 7.69113 | 166 ft | 16 kts | 248° |
| 2026-04-26 12:33 | 52.13169 | 7.68959 | 167 ft | 13 kts | 288° |
| 2026-04-26 12:34 | 52.13233 | 7.68914 | 166 ft | 12 kts | 342° |
| 2026-04-26 12:34 | 52.13330 | 7.68853 | 165 ft | 17 kts | 330° |
| 2026-04-26 12:34 | 52.13338 | 7.68713 | 168 ft | 14 kts | 253° |
| 2026-04-26 12:34 | 52.13306 | 7.68549 | 170 ft | 17 kts | 251° |
| 2026-04-26 12:35 | 52.13258 | 7.68341 | 169 ft | 22 kts | 246° |
| 2026-04-26 12:35 | 52.13210 | 7.68103 | 168 ft | 21 kts | 250° |
| 2026-04-26 12:35 | 52.13151 | 7.67849 | 165 ft | 26 kts | 253° |
| 2026-04-26 12:35 | 52.13089 | 7.67546 | 161 ft | 30 kts | 251° |
| 2026-04-26 12:36 | 52.13044 | 7.67335 | 162 ft | 17 kts | 253° |
| 2026-04-26 12:36 | 52.13027 | 7.67230 | 164 ft | 6 kts | 263° |
| 2026-04-26 12:36 | 52.13035 | 7.67141 | 164 ft | 10 kts | 293° |
| 2026-04-26 12:36 | 52.13070 | 7.67075 | 164 ft | 0 kts | 334° |
| 2026-04-26 12:37 | 52.13078 | 7.67070 | 164 ft | 4 kts | 337° |
| 2026-04-26 12:37 | 52.13125 | 7.67047 | 164 ft | 9 kts | 354° |
| 2026-04-26 12:37 | 52.13181 | 7.67124 | 162 ft | 13 kts | 71° |
| 2026-04-26 12:38 | 52.13189 | 7.67161 | 162 ft | 18 kts | 71° |
| 2026-04-26 12:38 | 52.13337 | 7.67866 | 163 ft | 110 kts | 70° |
| 2026-04-26 12:38 | 52.13656 | 7.69351 | 466 ft | 151 kts | 69° |
| 2026-04-26 12:38 | 52.14014 | 7.71016 | 1220 ft | 166 kts | 70° |
| 2026-04-26 12:39 | 52.14420 | 7.72908 | 1973 ft | 192 kts | 72° |
| 2026-04-26 12:39 | 52.14781 | 7.75214 | 2625 ft | 223 kts | 73° |
| 2026-04-26 12:39 | 52.15298 | 7.77711 | 3590 ft | 243 kts | 70° |
| 2026-04-26 12:39 | 52.15906 | 7.80375 | 4607 ft | 257 kts | 69° |
| 2026-04-26 12:40 | 52.16420 | 7.83217 | 5721 ft | 266 kts | 78° |
| 2026-04-26 12:40 | 52.16684 | 7.86246 | 6876 ft | 274 kts | 81° |
| 2026-04-26 12:40 | 52.16935 | 7.89358 | 7947 ft | 281 kts | 80° |
| 2026-04-26 12:40 | 52.17190 | 7.92549 | 9028 ft | 288 kts | 80° |
| 2026-04-26 12:41 | 52.17447 | 7.95817 | 10100 ft | 295 kts | 81° |
| 2026-04-26 12:41 | 52.17593 | 7.99222 | 10895 ft | 311 kts | 84° |
| 2026-04-26 12:41 | 52.17740 | 8.02886 | 11389 ft | 336 kts | 84° |
| 2026-04-26 12:41 | 52.17886 | 8.06747 | 11971 ft | 354 kts | 85° |
| 2026-04-26 12:42 | 52.18030 | 8.10796 | 12948 ft | 360 kts | 85° |
| 2026-04-26 12:42 | 52.18171 | 8.14911 | 13952 ft | 367 kts | 85° |
| 2026-04-26 12:42 | 52.18311 | 8.19096 | 14874 ft | 373 kts | 85° |
| 2026-04-26 12:42 | 52.18451 | 8.23322 | 15999 ft | 369 kts | 86° |
| 2026-04-26 12:43 | 52.18585 | 8.27427 | 17444 ft | 361 kts | 86° |
| 2026-04-26 12:43 | 52.18719 | 8.31546 | 18361 ft | 367 kts | 86° |
| 2026-04-26 12:43 | 52.18852 | 8.35730 | 19184 ft | 372 kts | 86° |
| 2026-04-26 12:43 | 52.18985 | 8.39960 | 20008 ft | 376 kts | 86° |
| 2026-04-26 12:44 | 52.19118 | 8.44236 | 20804 ft | 380 kts | 86° |
| 2026-04-26 12:44 | 52.19251 | 8.48570 | 21580 ft | 385 kts | 86° |
| 2026-04-26 12:44 | 52.19384 | 8.52951 | 22332 ft | 389 kts | 86° |
| 2026-04-26 12:44 | 52.19517 | 8.57380 | 23068 ft | 394 kts | 87° |
| 2026-04-26 12:45 | 52.19650 | 8.61864 | 23783 ft | 398 kts | 87° |
| 2026-04-26 12:45 | 52.19782 | 8.66390 | 24385 ft | 402 kts | 87° |
| 2026-04-26 12:45 | 52.19913 | 8.70968 | 24965 ft | 406 kts | 87° |
| 2026-04-26 12:45 | 52.20044 | 8.75586 | 25530 ft | 410 kts | 87° |
| 2026-04-26 12:46 | 52.20175 | 8.80255 | 25992 ft | 415 kts | 87° |
| 2026-04-26 12:46 | 52.20305 | 8.84971 | 26491 ft | 418 kts | 87° |
| 2026-04-26 12:46 | 52.20435 | 8.89727 | 26978 ft | 421 kts | 87° |
| 2026-04-26 12:46 | 52.20563 | 8.94518 | 27437 ft | 425 kts | 86° |
| 2026-04-26 12:47 | 52.20691 | 8.99350 | 27905 ft | 428 kts | 86° |
| 2026-04-26 12:47 | 52.20818 | 9.04219 | 28364 ft | 432 kts | 86° |
| 2026-04-26 12:47 | 52.20943 | 9.09126 | 28802 ft | 435 kts | 87° |
| 2026-04-26 12:47 | 52.21068 | 9.14066 | 29235 ft | 438 kts | 87° |
| 2026-04-26 12:48 | 52.21192 | 9.19050 | 29643 ft | 441 kts | 87° |
| 2026-04-26 12:48 | 52.21314 | 9.24067 | 30049 ft | 444 kts | 87° |
| 2026-04-26 12:48 | 52.21434 | 9.29108 | 30459 ft | 447 kts | 87° |
| 2026-04-26 12:48 | 52.21553 | 9.34195 | 30825 ft | 450 kts | 87° |
| 2026-04-26 12:49 | 52.21671 | 9.39308 | 31176 ft | 452 kts | 87° |
| 2026-04-26 12:49 | 52.21787 | 9.44438 | 31586 ft | 453 kts | 87° |
| 2026-04-26 12:49 | 52.21900 | 9.49569 | 32068 ft | 452 kts | 87° |
| 2026-04-26 12:49 | 52.22011 | 9.54688 | 32534 ft | 451 kts | 88° |
| 2026-04-26 12:50 | 52.22120 | 9.59794 | 33002 ft | 451 kts | 88° |
| 2026-04-26 12:50 | 52.22228 | 9.64944 | 33129 ft | 458 kts | 88° |
| 2026-04-26 12:50 | 52.22335 | 9.70178 | 33240 ft | 465 kts | 88° |
| 2026-04-26 12:51 | 52.22546 | 9.80848 | 33322 ft | 482 kts | 88° |
| 2026-04-26 12:51 | 52.22755 | 9.91967 | 33327 ft | 498 kts | 88° |
| 2026-04-26 12:52 | 52.22959 | 10.03366 | 33322 ft | 507 kts | 88° |
| 2026-04-26 12:52 | 52.23155 | 10.14916 | 33313 ft | 507 kts | 88° |
| 2026-04-26 12:53 | 52.23336 | 10.26312 | 33309 ft | 499 kts | 88° |
| 2026-04-26 12:53 | 52.23504 | 10.37578 | 33317 ft | 494 kts | 88° |
| 2026-04-26 12:54 | 52.23661 | 10.48767 | 33319 ft | 493 kts | 88° |
| 2026-04-26 12:54 | 52.23848 | 10.59916 | 33317 ft | 491 kts | 89° |
| 2026-04-26 12:55 | 52.23988 | 10.71060 | 33317 ft | 491 kts | 87° |
| 2026-04-26 12:55 | 52.24152 | 10.82180 | 33311 ft | 489 kts | 87° |
| 2026-04-26 12:56 | 52.24251 | 10.93284 | 33316 ft | 490 kts | 90° |
| 2026-04-26 12:56 | 52.24280 | 11.04402 | 33307 ft | 490 kts | 90° |
| 2026-04-26 12:57 | 52.24351 | 11.15531 | 33311 ft | 491 kts | 89° |
| 2026-04-26 12:57 | 52.24435 | 11.26683 | 33307 ft | 492 kts | 89° |
| 2026-04-26 12:58 | 52.24545 | 11.43444 | 33319 ft | 493 kts | 89° |
| 2026-04-26 12:58 | 52.24603 | 11.54641 | 33309 ft | 494 kts | 89° |